FCY949 LFRK-LFSL
Flight info
| Callsign | FCY949 |
|---|---|
| Flight time | N/A |
| Altitude | 31000 |
| Route | LGL DCT LMG |
| Aircraft | A20N/M-SDE2E3FGHIRWXY/LB1 |
Departure
| Time | N/A |
|---|---|
| Airport | Caen Carpiquet airport (LFRK) |
Arrival
| Time | 2026-04-21 19:27 |
|---|---|
| Airport | Brive Souillac airport (LFSL) |
| Time | Latitude | Longitude | Altitude | Speed | Heading |
|---|---|---|---|---|---|
| 2026-04-21 18:43 | 48.69056 | 0.55692 | 24573 ft | 436 kts | 185° |
| 2026-04-21 18:44 | 48.66013 | 0.55803 | 25097 ft | 439 kts | 184° |
| 2026-04-21 18:44 | 48.62952 | 0.56050 | 25627 ft | 442 kts | 182° |
| 2026-04-21 18:44 | 48.59878 | 0.56441 | 26125 ft | 446 kts | 180° |
| 2026-04-21 18:44 | 48.56773 | 0.56927 | 26579 ft | 450 kts | 179° |
| 2026-04-21 18:45 | 48.53654 | 0.57461 | 27033 ft | 453 kts | 179° |
| 2026-04-21 18:45 | 48.50511 | 0.58014 | 27489 ft | 456 kts | 179° |
| 2026-04-21 18:45 | 48.47349 | 0.58571 | 27929 ft | 459 kts | 179° |
| 2026-04-21 18:45 | 48.44166 | 0.59130 | 28353 ft | 462 kts | 179° |
| 2026-04-21 18:46 | 48.40966 | 0.59688 | 28772 ft | 464 kts | 179° |
| 2026-04-21 18:46 | 48.37753 | 0.60247 | 29153 ft | 467 kts | 179° |
| 2026-04-21 18:46 | 48.34519 | 0.60808 | 29532 ft | 469 kts | 179° |
| 2026-04-21 18:46 | 48.31264 | 0.61371 | 29919 ft | 472 kts | 179° |
| 2026-04-21 18:47 | 48.27993 | 0.61937 | 30279 ft | 475 kts | 179° |
| 2026-04-21 18:47 | 48.24705 | 0.62505 | 30639 ft | 476 kts | 179° |
| 2026-04-21 18:47 | 48.21408 | 0.63073 | 30970 ft | 478 kts | 179° |
| 2026-04-21 18:47 | 48.18100 | 0.63641 | 31120 ft | 478 kts | 179° |
| 2026-04-21 18:48 | 48.14796 | 0.64210 | 31142 ft | 477 kts | 179° |
| 2026-04-21 18:48 | 48.08200 | 0.65344 | 31135 ft | 477 kts | 179° |
| 2026-04-21 18:49 | 48.01599 | 0.66474 | 31128 ft | 477 kts | 179° |
| 2026-04-21 18:49 | 47.96121 | 0.67410 | 31124 ft | 476 kts | 179° |
| 2026-04-21 18:50 | 47.88432 | 0.68719 | 31121 ft | 476 kts | 179° |
| 2026-04-21 18:50 | 47.81890 | 0.69830 | 31122 ft | 476 kts | 179° |
| 2026-04-21 18:51 | 47.75306 | 0.70944 | 31107 ft | 476 kts | 178° |
| 2026-04-21 18:51 | 47.68729 | 0.72056 | 31111 ft | 476 kts | 178° |
| 2026-04-21 18:52 | 47.62146 | 0.73166 | 31108 ft | 476 kts | 178° |
| 2026-04-21 18:52 | 47.55561 | 0.74273 | 31106 ft | 476 kts | 178° |
| 2026-04-21 18:53 | 47.48978 | 0.75378 | 31104 ft | 476 kts | 178° |
| 2026-04-21 18:53 | 47.42396 | 0.76479 | 31108 ft | 476 kts | 178° |
| 2026-04-21 18:54 | 47.35812 | 0.77578 | 31095 ft | 476 kts | 178° |
| 2026-04-21 18:54 | 47.29234 | 0.78673 | 31078 ft | 476 kts | 179° |
| 2026-04-21 18:55 | 47.23764 | 0.79581 | 31084 ft | 476 kts | 179° |
| 2026-04-21 18:55 | 47.16066 | 0.80857 | 31072 ft | 476 kts | 179° |
| 2026-04-21 18:56 | 47.09474 | 0.81946 | 31065 ft | 477 kts | 179° |
| 2026-04-21 18:56 | 47.02877 | 0.83032 | 31067 ft | 477 kts | 178° |
| 2026-04-21 18:57 | 46.96313 | 0.84112 | 31056 ft | 478 kts | 178° |
| 2026-04-21 18:57 | 46.89711 | 0.85195 | 31067 ft | 478 kts | 178° |
| 2026-04-21 18:58 | 46.83098 | 0.86277 | 31067 ft | 478 kts | 178° |
| 2026-04-21 18:58 | 46.76500 | 0.87354 | 31062 ft | 478 kts | 178° |
| 2026-04-21 18:59 | 46.69893 | 0.88430 | 31059 ft | 478 kts | 178° |
| 2026-04-21 18:59 | 46.63287 | 0.89502 | 31054 ft | 478 kts | 178° |
| 2026-04-21 19:00 | 46.56685 | 0.90572 | 31051 ft | 477 kts | 178° |
| 2026-04-21 19:00 | 46.53384 | 0.91105 | 30855 ft | 475 kts | 178° |
| 2026-04-21 19:00 | 46.50096 | 0.91636 | 30201 ft | 477 kts | 178° |
| 2026-04-21 19:00 | 46.46782 | 0.92168 | 29147 ft | 481 kts | 178° |
| 2026-04-21 19:01 | 46.43442 | 0.92704 | 28091 ft | 484 kts | 178° |
| 2026-04-21 19:01 | 46.40106 | 0.93243 | 27336 ft | 480 kts | 178° |
| 2026-04-21 19:01 | 46.36807 | 0.93777 | 26653 ft | 475 kts | 178° |
| 2026-04-21 19:01 | 46.33540 | 0.94303 | 25988 ft | 469 kts | 178° |
| 2026-04-21 19:02 | 46.30316 | 0.94821 | 25317 ft | 464 kts | 178° |
| 2026-04-21 19:02 | 46.27165 | 0.95325 | 24703 ft | 459 kts | 178° |
| 2026-04-21 19:02 | 46.23988 | 0.95835 | 24321 ft | 448 kts | 178° |
| 2026-04-21 19:02 | 46.20980 | 0.96319 | 24086 ft | 434 kts | 178° |
| 2026-04-21 19:03 | 46.18024 | 0.96794 | 23853 ft | 423 kts | 178° |
| 2026-04-21 19:03 | 46.15096 | 0.97258 | 23598 ft | 424 kts | 178° |
| 2026-04-21 19:03 | 46.13113 | 0.97570 | 23419 ft | 424 kts | 178° |
| 2026-04-21 19:03 | 46.09236 | 0.98182 | 23054 ft | 422 kts | 178° |
| 2026-04-21 19:04 | 46.06326 | 0.98644 | 22774 ft | 420 kts | 178° |
| 2026-04-21 19:04 | 46.03428 | 0.99105 | 22504 ft | 419 kts | 178° |
| 2026-04-21 19:04 | 46.00536 | 0.99563 | 22232 ft | 417 kts | 178° |
| 2026-04-21 19:04 | 45.98589 | 0.99871 | 22056 ft | 416 kts | 178° |
| 2026-04-21 19:05 | 45.95713 | 1.00325 | 21672 ft | 416 kts | 178° |
| 2026-04-21 19:05 | 45.92840 | 1.00778 | 21120 ft | 415 kts | 178° |
| 2026-04-21 19:05 | 45.89986 | 1.01230 | 20559 ft | 411 kts | 178° |
| 2026-04-21 19:05 | 45.86259 | 1.02028 | 19892 ft | 408 kts | 167° |
| 2026-04-21 19:06 | 45.84481 | 1.03031 | 19712 ft | 407 kts | 155° |
| 2026-04-21 19:06 | 45.82034 | 1.05125 | 19474 ft | 412 kts | 150° |
| 2026-04-21 19:06 | 45.79630 | 1.07261 | 19234 ft | 411 kts | 150° |
| 2026-04-21 19:06 | 45.77204 | 1.09423 | 18995 ft | 409 kts | 150° |
| 2026-04-21 19:07 | 45.74794 | 1.11570 | 18738 ft | 407 kts | 150° |
| 2026-04-21 19:07 | 45.72383 | 1.13714 | 18211 ft | 409 kts | 150° |
| 2026-04-21 19:07 | 45.69966 | 1.15859 | 17599 ft | 407 kts | 150° |
| 2026-04-21 19:07 | 45.67573 | 1.17981 | 17039 ft | 403 kts | 150° |
| 2026-04-21 19:08 | 45.65201 | 1.20082 | 16469 ft | 399 kts | 151° |
| 2026-04-21 19:08 | 45.62853 | 1.22158 | 15914 ft | 395 kts | 151° |
| 2026-04-21 19:08 | 45.60521 | 1.24216 | 15347 ft | 393 kts | 151° |
| 2026-04-21 19:08 | 45.58220 | 1.26246 | 15050 ft | 384 kts | 151° |
| 2026-04-21 19:09 | 45.55941 | 1.28254 | 14963 ft | 386 kts | 151° |
| 2026-04-21 19:09 | 45.53653 | 1.30267 | 14954 ft | 386 kts | 151° |
| 2026-04-21 19:09 | 45.51284 | 1.32009 | 14952 ft | 383 kts | 160° |
| 2026-04-21 19:09 | 45.48823 | 1.33467 | 14950 ft | 383 kts | 161° |
| 2026-04-21 19:10 | 45.46359 | 1.34908 | 14940 ft | 382 kts | 161° |
| 2026-04-21 19:10 | 45.43906 | 1.36339 | 14671 ft | 381 kts | 161° |
| 2026-04-21 19:10 | 45.41442 | 1.37779 | 14080 ft | 384 kts | 161° |
| 2026-04-21 19:10 | 45.38951 | 1.39236 | 13221 ft | 391 kts | 161° |
| 2026-04-21 19:11 | 45.36433 | 1.40708 | 12510 ft | 390 kts | 160° |
| 2026-04-21 19:11 | 45.33948 | 1.42166 | 12091 ft | 381 kts | 160° |
| 2026-04-21 19:11 | 45.31553 | 1.43574 | 11954 ft | 364 kts | 160° |
| 2026-04-21 19:11 | 45.29237 | 1.44932 | 11935 ft | 362 kts | 161° |
| 2026-04-21 19:12 | 45.26895 | 1.46298 | 11893 ft | 364 kts | 160° |
| 2026-04-21 19:12 | 45.24555 | 1.47662 | 11621 ft | 364 kts | 160° |
| 2026-04-21 19:12 | 45.22208 | 1.49028 | 11044 ft | 366 kts | 160° |
| 2026-04-21 19:12 | 45.19837 | 1.50407 | 10245 ft | 371 kts | 160° |
| 2026-04-21 19:13 | 45.17459 | 1.51791 | 9446 ft | 366 kts | 160° |
| 2026-04-21 19:13 | 45.15201 | 1.53108 | 9172 ft | 345 kts | 160° |
| 2026-04-21 19:13 | 45.13044 | 1.54365 | 8969 ft | 325 kts | 160° |
| 2026-04-21 19:13 | 45.11011 | 1.55547 | 8763 ft | 306 kts | 160° |
| 2026-04-21 19:14 | 45.09104 | 1.56655 | 8602 ft | 287 kts | 160° |
| 2026-04-21 19:14 | 45.07308 | 1.57698 | 8442 ft | 270 kts | 160° |
| 2026-04-21 19:14 | 45.05623 | 1.58671 | 8304 ft | 254 kts | 160° |
| 2026-04-21 19:14 | 45.03965 | 1.59231 | 7966 ft | 240 kts | 186° |
| 2026-04-21 19:15 | 45.02415 | 1.58604 | 7513 ft | 230 kts | 218° |
| 2026-04-21 19:15 | 45.01389 | 1.56962 | 7024 ft | 223 kts | 250° |
| 2026-04-21 19:15 | 45.01218 | 1.54901 | 6801 ft | 205 kts | 284° |
| 2026-04-21 19:15 | 45.01789 | 1.53119 | 6574 ft | 197 kts | 298° |
| 2026-04-21 19:16 | 45.02524 | 1.51493 | 6224 ft | 195 kts | 300° |
| 2026-04-21 19:16 | 45.03218 | 1.49934 | 6071 ft | 180 kts | 298° |
| 2026-04-21 19:16 | 45.03728 | 1.48394 | 5879 ft | 169 kts | 274° |
| 2026-04-21 19:16 | 45.03412 | 1.46827 | 5748 ft | 174 kts | 230° |
| 2026-04-21 19:17 | 45.01237 | 1.45561 | 5410 ft | 179 kts | 174° |
| 2026-04-21 19:17 | 45.00099 | 1.46269 | 5255 ft | 183 kts | 134° |
| 2026-04-21 19:17 | 44.99353 | 1.47686 | 5046 ft | 180 kts | 118° |
| 2026-04-21 19:18 | 44.98823 | 1.49310 | 4903 ft | 182 kts | 111° |
| 2026-04-21 19:18 | 44.98337 | 1.50959 | 4740 ft | 181 kts | 111° |
| 2026-04-21 19:18 | 44.97860 | 1.52585 | 4543 ft | 177 kts | 111° |
| 2026-04-21 19:18 | 44.97392 | 1.54158 | 4361 ft | 177 kts | 111° |
| 2026-04-21 19:19 | 44.96912 | 1.55758 | 4187 ft | 177 kts | 111° |
| 2026-04-21 19:19 | 44.96435 | 1.57358 | 4020 ft | 176 kts | 111° |
| 2026-04-21 19:19 | 44.95964 | 1.58938 | 3840 ft | 174 kts | 111° |
| 2026-04-21 19:19 | 44.95495 | 1.60517 | 3663 ft | 174 kts | 111° |
| 2026-04-21 19:20 | 44.95031 | 1.62085 | 3488 ft | 172 kts | 109° |
| 2026-04-21 19:20 | 44.95007 | 1.63730 | 3309 ft | 169 kts | 66° |
| 2026-04-21 19:20 | 44.95796 | 1.64909 | 3159 ft | 170 kts | 22° |
| 2026-04-21 19:20 | 44.96939 | 1.64988 | 3012 ft | 167 kts | 345° |
| 2026-04-21 19:21 | 44.98042 | 1.64461 | 2988 ft | 168 kts | 332° |
| 2026-04-21 19:21 | 44.98945 | 1.63426 | 2987 ft | 169 kts | 309° |
| 2026-04-21 19:21 | 44.99581 | 1.62027 | 2979 ft | 171 kts | 297° |
| 2026-04-21 19:21 | 45.00102 | 1.60500 | 2741 ft | 173 kts | 294° |
| 2026-04-21 19:22 | 45.00595 | 1.58962 | 2509 ft | 171 kts | 295° |
| 2026-04-21 19:22 | 45.01086 | 1.57445 | 2269 ft | 168 kts | 294° |
| 2026-04-21 19:22 | 45.01571 | 1.55951 | 2044 ft | 166 kts | 295° |
| 2026-04-21 19:22 | 45.02043 | 1.54493 | 2010 ft | 168 kts | 295° |
| 2026-04-21 19:23 | 45.02528 | 1.52997 | 2006 ft | 166 kts | 295° |
| 2026-04-21 19:23 | 45.03041 | 1.51527 | 2004 ft | 168 kts | 305° |
| 2026-04-21 19:23 | 45.03786 | 1.50285 | 2001 ft | 162 kts | 313° |
| 2026-04-21 19:23 | 45.04515 | 1.49117 | 2000 ft | 158 kts | 313° |
| 2026-04-21 19:24 | 45.05223 | 1.47931 | 1997 ft | 158 kts | 302° |
| 2026-04-21 19:24 | 45.05667 | 1.46515 | 2001 ft | 158 kts | 291° |
| 2026-04-21 19:24 | 45.06052 | 1.45101 | 1996 ft | 150 kts | 291° |
| 2026-04-21 19:24 | 45.06418 | 1.43731 | 2004 ft | 149 kts | 291° |
| 2026-04-21 19:25 | 45.06487 | 1.42352 | 2094 ft | 140 kts | 237° |
| 2026-04-21 19:25 | 45.05646 | 1.41790 | 2126 ft | 140 kts | 171° |
| 2026-04-21 19:25 | 45.04903 | 1.42548 | 1888 ft | 136 kts | 116° |
| 2026-04-21 19:25 | 45.04818 | 1.43832 | 1602 ft | 130 kts | 83° |
| 2026-04-21 19:26 | 45.04898 | 1.45095 | 1384 ft | 132 kts | 94° |
| 2026-04-21 19:26 | 45.04649 | 1.46310 | 1207 ft | 127 kts | 112° |
| 2026-04-21 19:26 | 45.04317 | 1.47464 | 1023 ft | 124 kts | 110° |
| 2026-04-21 19:26 | 45.04034 | 1.48383 | 1013 ft | 61 kts | 114° |
| 2026-04-21 19:27 | 45.03987 | 1.48538 | 1010 ft | 7 kts | 113° |
| 2026-04-21 19:27 | 45.03995 | 1.48589 | 1010 ft | 0 kts | 61° |
| 2026-04-21 19:27 | 45.04006 | 1.48597 | 1009 ft | 6 kts | 32° |
| 2026-04-21 19:27 | 45.04055 | 1.48630 | 1008 ft | 7 kts | 23° |
| 2026-04-21 19:28 | 45.04086 | 1.48649 | 1007 ft | 4 kts | 22° |
| 2026-04-21 19:28 | 45.04098 | 1.48678 | 1007 ft | 3 kts | 72° |
| 2026-04-21 19:28 | 45.04112 | 1.48711 | 1008 ft | 5 kts | 45° |
| 2026-04-21 19:28 | 45.04145 | 1.48739 | 1007 ft | 5 kts | 26° |
| 2026-04-21 19:29 | 45.04158 | 1.48775 | 1006 ft | 4 kts | 91° |
| 2026-04-21 19:29 | 45.04153 | 1.48784 | 1006 ft | 1 kts | 145° |
| 2026-04-21 19:29 | 45.04144 | 1.48778 | 1007 ft | 0 kts | 224° |
| 2026-04-21 19:29 | 45.04144 | 1.48776 | 1007 ft | 0 kts | 234° |